Etusivu
METAR-TAF:

METAR-TAF

Lentoasemat :

Eros Airport

Windhoek, Namibia

Leveyspiiri: 22-36-44S, Pituuspiiri: 017-04-50E, korkeus merenpinnasta: 1699 m

Tämänhetkinen sää

Tämä raportti tehtiin 3 tuntia ja 10 minuuttia sitten, kello 18.00 UTC
Tuuli 4 kn idästä/koillisesta
Lämpötila 30°C
Kosteus 14%
Ilmanpaine 1023 hPa
Näkyvyys 10 km tai enemmän
ei pilviä alle 1500 m:ssä eikä cumulonimbus-pilviä

METAR: FYWE 221800Z 07004KT CAVOK 30/00 Q1023

Aika: 23:10 (21:10 UTC)

Sääennuste

Tämä raportti tehtiin 1 tunti ja 10 minuuttia sitten, kello 20.00 UTC
Ennuste voimassa 22. päivästä klo 21 UTC - 23. päivään klo 06 UTC
Tuuli 5 kn idästä
Näkyvyys 10 km tai enemmän
ei pilviä alle 1500 m:ssä eikä cumulonimbus-pilviä
Tulossa
23. päivästä klo 00 UTC - 23. päivään klo 02 UTC
Tuuli 4 kn etelästä
Tulossa
23. päivästä klo 03 UTC - 23. päivään klo 05 UTC
Tuuli 3 kn idästä/koillisesta

TAF: FYWE 222000Z 2221/2306 09005KT CAVOK BECMG 2300/2302 17004KT BECMG 2303/2305 06003KT

Säähavainnot ja -ennusteet yli 4000 lentoasemalta (METAR- ja TAF-raportit).

Käytössä olevat sääasemat on merkitty karttaan keltaisilla ja punaisilla pisteillä.

Aseta hiiri pisteen päälle nähdäksesi sääaseman nimen.

Klikkaa sitten nähdäksesi säähavainnot ja -ennusteet.

Kartan vaihtaminen: klikkaa mustalla rastilla varustettuja vihreitä pisteitä, niin voit zoomata sisään; viivalla varustettua vihreää pistettä, niin voit zoomata ulos tai vihreitä nuolia, niin pääset viereisille kartoille.


METAR-TAF: